sensor_id;sensor_type;location;lat;lon;timestamp;P1;durP1;ratioP1;P2;durP2;ratioP2
78288;SDS011;67539;48.752;12.922;2023-07-20T00:00:00;4.97;;;4.57;;
78288;SDS011;67539;48.752;12.922;2023-07-20T00:02:38;4.03;;;3.70;;
78288;SDS011;67539;48.752;12.922;2023-07-20T00:05:06;4.50;;;4.10;;
78288;SDS011;67539;48.752;12.922;2023-07-20T00:07:35;4.60;;;4.20;;
78288;SDS011;67539;48.752;12.922;2023-07-20T00:10:04;5.40;;;4.23;;
78288;SDS011;67539;48.752;12.922;2023-07-20T00:12:33;5.87;;;4.23;;
78288;SDS011;67539;48.752;12.922;2023-07-20T00:15:02;4.70;;;4.03;;
78288;SDS011;67539;48.752;12.922;2023-07-20T00:17:30;8.63;;;4.73;;
78288;SDS011;67539;48.752;12.922;2023-07-20T00:19:59;4.50;;;3.53;;
78288;SDS011;67539;48.752;12.922;2023-07-20T00:22:27;5.70;;;4.50;;
78288;SDS011;67539;48.752;12.922;2023-07-20T00:24:55;6.27;;;4.70;;
78288;SDS011;67539;48.752;12.922;2023-07-20T00:27:25;7.37;;;4.97;;
78288;SDS011;67539;48.752;12.922;2023-07-20T00:29:53;5.13;;;4.67;;
78288;SDS011;67539;48.752;12.922;2023-07-20T00:32:21;4.60;;;4.20;;
78288;SDS011;67539;48.752;12.922;2023-07-20T00:34:50;5.10;;;4.70;;
78288;SDS011;67539;48.752;12.922;2023-07-20T00:37:18;5.07;;;4.57;;
78288;SDS011;67539;48.752;12.922;2023-07-20T00:39:46;7.07;;;4.50;;
78288;SDS011;67539;48.752;12.922;2023-07-20T00:42:14;4.90;;;4.20;;
78288;SDS011;67539;48.752;12.922;2023-07-20T00:44:45;4.40;;;4.07;;
78288;SDS011;67539;48.752;12.922;2023-07-20T00:47:13;4.30;;;4.00;;
78288;SDS011;67539;48.752;12.922;2023-07-20T00:49:42;4.60;;;4.20;;
78288;SDS011;67539;48.752;12.922;2023-07-20T00:52:10;5.13;;;4.07;;
78288;SDS011;67539;48.752;12.922;2023-07-20T00:54:42;6.67;;;3.90;;
78288;SDS011;67539;48.752;12.922;2023-07-20T00:57:11;4.97;;;4.40;;
78288;SDS011;67539;48.752;12.922;2023-07-20T00:59:41;6.47;;;4.50;;
78288;SDS011;67539;48.752;12.922;2023-07-20T01:02:11;6.13;;;5.03;;
78288;SDS011;67539;48.752;12.922;2023-07-20T01:04:39;4.93;;;4.53;;
78288;SDS011;67539;48.752;12.922;2023-07-20T01:07:12;8.40;;;4.40;;
78288;SDS011;67539;48.752;12.922;2023-07-20T01:09:46;8.00;;;4.17;;
78288;SDS011;67539;48.752;12.922;2023-07-20T01:12:22;4.40;;;4.00;;
78288;SDS011;67539;48.752;12.922;2023-07-20T01:16:07;5.00;;;4.50;;
78288;SDS011;67539;48.752;12.922;2023-07-20T01:19:51;4.80;;;4.30;;
78288;SDS011;67539;48.752;12.922;2023-07-20T01:23:41;5.83;;;4.13;;
78288;SDS011;67539;48.752;12.922;2023-07-20T01:27:50;4.30;;;3.90;;
78288;SDS011;67539;48.752;12.922;2023-07-20T01:31:56;4.17;;;3.87;;
78288;SDS011;67539;48.752;12.922;2023-07-20T01:35:38;5.70;;;5.17;;
78288;SDS011;67539;48.752;12.922;2023-07-20T01:39:21;5.57;;;4.23;;
78288;SDS011;67539;48.752;12.922;2023-07-20T01:43:03;4.67;;;4.20;;
78288;SDS011;67539;48.752;12.922;2023-07-20T01:46:44;5.40;;;4.80;;
78288;SDS011;67539;48.752;12.922;2023-07-20T01:50:26;5.20;;;4.70;;
78288;SDS011;67539;48.752;12.922;2023-07-20T01:54:06;5.47;;;4.97;;
78288;SDS011;67539;48.752;12.922;2023-07-20T01:57:49;6.10;;;5.33;;
78288;SDS011;67539;48.752;12.922;2023-07-20T02:01:29;4.70;;;4.30;;
78288;SDS011;67539;48.752;12.922;2023-07-20T02:05:11;5.30;;;4.80;;
78288;SDS011;67539;48.752;12.922;2023-07-20T04:06:58;7.93;;;6.10;;
78288;SDS011;67539;48.752;12.922;2023-07-20T04:09:27;8.73;;;4.80;;
78288;SDS011;67539;48.752;12.922;2023-07-20T04:11:55;6.37;;;5.77;;
78288;SDS011;67539;48.752;12.922;2023-07-20T04:14:23;5.73;;;4.60;;
78288;SDS011;67539;48.752;12.922;2023-07-20T04:16:51;6.43;;;4.63;;
78288;SDS011;67539;48.752;12.922;2023-07-20T04:19:22;6.27;;;5.67;;
78288;SDS011;67539;48.752;12.922;2023-07-20T04:21:52;5.80;;;5.20;;
78288;SDS011;67539;48.752;12.922;2023-07-20T04:24:22;5.70;;;5.20;;
78288;SDS011;67539;48.752;12.922;2023-07-20T04:26:50;4.97;;;4.50;;
78288;SDS011;67539;48.752;12.922;2023-07-20T04:29:18;9.63;;;5.63;;
78288;SDS011;67539;48.752;12.922;2023-07-20T04:34:49;10.73;;;6.57;;
78288;SDS011;67539;48.752;12.922;2023-07-20T04:37:18;5.57;;;4.90;;
78288;SDS011;67539;48.752;12.922;2023-07-20T04:39:48;7.87;;;6.70;;
78288;SDS011;67539;48.752;12.922;2023-07-20T04:42:17;10.30;;;5.27;;
78288;SDS011;67539;48.752;12.922;2023-07-20T04:44:46;4.90;;;4.50;;
78288;SDS011;67539;48.752;12.922;2023-07-20T04:47:15;5.70;;;5.07;;
78288;SDS011;67539;48.752;12.922;2023-07-20T04:49:43;5.37;;;4.77;;
78288;SDS011;67539;48.752;12.922;2023-07-20T04:52:11;6.80;;;4.83;;
78288;SDS011;67539;48.752;12.922;2023-07-20T04:54:39;6.93;;;4.90;;
78288;SDS011;67539;48.752;12.922;2023-07-20T04:57:11;5.43;;;4.50;;
78288;SDS011;67539;48.752;12.922;2023-07-20T04:59:44;5.27;;;4.77;;
78288;SDS011;67539;48.752;12.922;2023-07-20T05:02:13;6.20;;;5.40;;
78288;SDS011;67539;48.752;12.922;2023-07-20T05:04:41;5.10;;;4.57;;
78288;SDS011;67539;48.752;12.922;2023-07-20T05:07:09;6.03;;;5.17;;
78288;SDS011;67539;48.752;12.922;2023-07-20T05:09:37;5.50;;;5.00;;
78288;SDS011;67539;48.752;12.922;2023-07-20T05:12:05;5.00;;;4.60;;
78288;SDS011;67539;48.752;12.922;2023-07-20T05:14:36;4.63;;;4.23;;
78288;SDS011;67539;48.752;12.922;2023-07-20T05:17:04;5.17;;;4.77;;
78288;SDS011;67539;48.752;12.922;2023-07-20T05:19:33;8.23;;;5.03;;
78288;SDS011;67539;48.752;12.922;2023-07-20T05:22:01;9.30;;;5.40;;
78288;SDS011;67539;48.752;12.922;2023-07-20T05:24:31;5.63;;;5.17;;
78288;SDS011;67539;48.752;12.922;2023-07-20T05:26:59;5.47;;;4.97;;
78288;SDS011;67539;48.752;12.922;2023-07-20T05:29:27;4.57;;;4.17;;
78288;SDS011;67539;48.752;12.922;2023-07-20T05:31:57;9.60;;;5.30;;
78288;SDS011;67539;48.752;12.922;2023-07-20T05:34:25;5.50;;;4.87;;
78288;SDS011;67539;48.752;12.922;2023-07-20T05:36:53;7.43;;;5.07;;
78288;SDS011;67539;48.752;12.922;2023-07-20T05:39:21;6.77;;;6.03;;
78288;SDS011;67539;48.752;12.922;2023-07-20T05:41:49;6.40;;;5.20;;
78288;SDS011;67539;48.752;12.922;2023-07-20T05:44:17;5.10;;;4.70;;
78288;SDS011;67539;48.752;12.922;2023-07-20T05:46:45;5.20;;;4.70;;
78288;SDS011;67539;48.752;12.922;2023-07-20T05:49:25;5.13;;;4.73;;
78288;SDS011;67539;48.752;12.922;2023-07-20T05:51:53;6.70;;;5.80;;
78288;SDS011;67539;48.752;12.922;2023-07-20T05:54:21;6.10;;;5.30;;
78288;SDS011;67539;48.752;12.922;2023-07-20T05:56:49;5.30;;;4.90;;
78288;SDS011;67539;48.752;12.922;2023-07-20T05:59:17;5.97;;;5.27;;
78288;SDS011;67539;48.752;12.922;2023-07-20T06:01:45;5.93;;;5.43;;
78288;SDS011;67539;48.752;12.922;2023-07-20T06:04:15;5.57;;;4.87;;
78288;SDS011;67539;48.752;12.922;2023-07-20T06:06:44;7.73;;;5.63;;
78288;SDS011;67539;48.752;12.922;2023-07-20T06:09:12;7.60;;;5.20;;
78288;SDS011;67539;48.752;12.922;2023-07-20T06:11:40;6.40;;;5.70;;
78288;SDS011;67539;48.752;12.922;2023-07-20T06:14:08;6.03;;;5.30;;
78288;SDS011;67539;48.752;12.922;2023-07-20T06:16:37;7.27;;;4.73;;
78288;SDS011;67539;48.752;12.922;2023-07-20T06:19:05;4.97;;;4.57;;
78288;SDS011;67539;48.752;12.922;2023-07-20T06:21:33;6.10;;;4.90;;
78288;SDS011;67539;48.752;12.922;2023-07-20T06:24:02;10.20;;;6.50;;
78288;SDS011;67539;48.752;12.922;2023-07-20T06:26:31;8.83;;;8.20;;
78288;SDS011;67539;48.752;12.922;2023-07-20T06:29:04;7.60;;;5.70;;
78288;SDS011;67539;48.752;12.922;2023-07-20T06:31:33;5.33;;;4.93;;
78288;SDS011;67539;48.752;12.922;2023-07-20T06:34:02;7.00;;;5.37;;
78288;SDS011;67539;48.752;12.922;2023-07-20T06:36:30;8.40;;;5.13;;
78288;SDS011;67539;48.752;12.922;2023-07-20T06:38:58;5.73;;;5.23;;
78288;SDS011;67539;48.752;12.922;2023-07-20T06:41:31;4.47;;;4.10;;
78288;SDS011;67539;48.752;12.922;2023-07-20T06:44:02;7.40;;;3.93;;
78288;SDS011;67539;48.752;12.922;2023-07-20T06:46:31;4.50;;;4.10;;
78288;SDS011;67539;48.752;12.922;2023-07-20T06:48:59;5.60;;;4.13;;
78288;SDS011;67539;48.752;12.922;2023-07-20T06:51:30;4.10;;;3.77;;
78288;SDS011;67539;48.752;12.922;2023-07-20T06:53:58;5.80;;;3.80;;
78288;SDS011;67539;48.752;12.922;2023-07-20T06:56:26;6.90;;;3.60;;
78288;SDS011;67539;48.752;12.922;2023-07-20T06:58:58;5.50;;;4.00;;
78288;SDS011;67539;48.752;12.922;2023-07-20T07:01:26;7.33;;;4.10;;
78288;SDS011;67539;48.752;12.922;2023-07-20T07:03:54;4.23;;;3.87;;
78288;SDS011;67539;48.752;12.922;2023-07-20T07:06:23;7.00;;;4.20;;
78288;SDS011;67539;48.752;12.922;2023-07-20T07:08:52;4.40;;;4.00;;
78288;SDS011;67539;48.752;12.922;2023-07-20T07:11:20;4.37;;;4.07;;
78288;SDS011;67539;48.752;12.922;2023-07-20T07:13:49;4.47;;;4.07;;
78288;SDS011;67539;48.752;12.922;2023-07-20T07:16:19;6.00;;;4.10;;
78288;SDS011;67539;48.752;12.922;2023-07-20T07:18:47;8.27;;;5.00;;
78288;SDS011;67539;48.752;12.922;2023-07-20T07:21:17;5.27;;;3.83;;
78288;SDS011;67539;48.752;12.922;2023-07-20T07:23:45;4.13;;;3.57;;
78288;SDS011;67539;48.752;12.922;2023-07-20T07:26:14;4.10;;;3.80;;
78288;SDS011;67539;48.752;12.922;2023-07-20T07:28:42;4.30;;;4.00;;
78288;SDS011;67539;48.752;12.922;2023-07-20T07:31:10;5.50;;;5.00;;
78288;SDS011;67539;48.752;12.922;2023-07-20T07:33:39;5.73;;;4.57;;
78288;SDS011;67539;48.752;12.922;2023-07-20T07:36:07;5.27;;;4.67;;
78288;SDS011;67539;48.752;12.922;2023-07-20T07:38:35;5.27;;;4.87;;
78288;SDS011;67539;48.752;12.922;2023-07-20T07:41:23;6.50;;;5.13;;
78288;SDS011;67539;48.752;12.922;2023-07-20T07:43:51;8.27;;;6.33;;
78288;SDS011;67539;48.752;12.922;2023-07-20T07:46:19;5.90;;;5.40;;
78288;SDS011;67539;48.752;12.922;2023-07-20T07:48:49;7.30;;;6.40;;
78288;SDS011;67539;48.752;12.922;2023-07-20T07:51:17;9.60;;;6.43;;
78288;SDS011;67539;48.752;12.922;2023-07-20T07:53:45;6.07;;;5.47;;
78288;SDS011;67539;48.752;12.922;2023-07-20T07:56:15;6.47;;;5.87;;
78288;SDS011;67539;48.752;12.922;2023-07-20T07:58:48;6.50;;;5.90;;
78288;SDS011;67539;48.752;12.922;2023-07-20T08:01:17;5.90;;;5.40;;
78288;SDS011;67539;48.752;12.922;2023-07-20T08:03:46;6.73;;;6.13;;
78288;SDS011;67539;48.752;12.922;2023-07-20T08:06:16;6.70;;;6.10;;
78288;SDS011;67539;48.752;12.922;2023-07-20T08:08:44;6.27;;;5.67;;
78288;SDS011;67539;48.752;12.922;2023-07-20T08:11:12;8.20;;;7.50;;
78288;SDS011;67539;48.752;12.922;2023-07-20T08:13:41;9.80;;;9.10;;
78288;SDS011;67539;48.752;12.922;2023-07-20T08:16:09;5.53;;;5.10;;
78288;SDS011;67539;48.752;12.922;2023-07-20T08:18:37;5.30;;;4.70;;
78288;SDS011;67539;48.752;12.922;2023-07-20T08:21:05;5.90;;;5.40;;
78288;SDS011;67539;48.752;12.922;2023-07-20T08:23:35;5.57;;;5.07;;
78288;SDS011;67539;48.752;12.922;2023-07-20T08:26:03;6.23;;;5.60;;
78288;SDS011;67539;48.752;12.922;2023-07-20T08:28:31;5.10;;;4.70;;
78288;SDS011;67539;48.752;12.922;2023-07-20T08:30:59;5.97;;;5.47;;
78288;SDS011;67539;48.752;12.922;2023-07-20T08:33:27;8.10;;;5.23;;
78288;SDS011;67539;48.752;12.922;2023-07-20T08:36:00;6.00;;;5.40;;
78288;SDS011;67539;48.752;12.922;2023-07-20T08:38:29;4.47;;;4.27;;
78288;SDS011;67539;48.752;12.922;2023-07-20T08:40:59;6.30;;;4.97;;
78288;SDS011;67539;48.752;12.922;2023-07-20T08:43:28;5.40;;;4.50;;
78288;SDS011;67539;48.752;12.922;2023-07-20T08:45:57;5.53;;;5.03;;
78288;SDS011;67539;48.752;12.922;2023-07-20T08:48:26;4.90;;;4.20;;
78288;SDS011;67539;48.752;12.922;2023-07-20T08:50:55;5.20;;;4.80;;
78288;SDS011;67539;48.752;12.922;2023-07-20T08:53:23;4.40;;;4.10;;
78288;SDS011;67539;48.752;12.922;2023-07-20T08:55:51;4.73;;;4.33;;
78288;SDS011;67539;48.752;12.922;2023-07-20T08:58:21;7.17;;;5.20;;
78288;SDS011;67539;48.752;12.922;2023-07-20T09:00:52;6.13;;;4.70;;
78288;SDS011;67539;48.752;12.922;2023-07-20T09:03:22;4.50;;;4.20;;
78288;SDS011;67539;48.752;12.922;2023-07-20T09:05:50;5.33;;;4.80;;
78288;SDS011;67539;48.752;12.922;2023-07-20T09:08:18;18.83;;;17.83;;
78288;SDS011;67539;48.752;12.922;2023-07-20T09:10:47;5.90;;;5.13;;
78288;SDS011;67539;48.752;12.922;2023-07-20T09:13:15;5.83;;;5.30;;
78288;SDS011;67539;48.752;12.922;2023-07-20T09:15:49;7.10;;;6.40;;
78288;SDS011;67539;48.752;12.922;2023-07-20T09:18:24;4.93;;;4.17;;
78288;SDS011;67539;48.752;12.922;2023-07-20T09:20:53;4.77;;;4.37;;
78288;SDS011;67539;48.752;12.922;2023-07-20T09:23:29;5.53;;;4.80;;
78288;SDS011;67539;48.752;12.922;2023-07-20T09:25:59;4.73;;;4.33;;
78288;SDS011;67539;48.752;12.922;2023-07-20T09:28:28;4.83;;;4.40;;
78288;SDS011;67539;48.752;12.922;2023-07-20T09:30:57;4.33;;;3.93;;
78288;SDS011;67539;48.752;12.922;2023-07-20T09:33:25;5.27;;;4.87;;
78288;SDS011;67539;48.752;12.922;2023-07-20T09:35:54;6.07;;;5.57;;
78288;SDS011;67539;48.752;12.922;2023-07-20T09:38:50;5.37;;;4.93;;
78288;SDS011;67539;48.752;12.922;2023-07-20T09:41:21;4.50;;;4.20;;
78288;SDS011;67539;48.752;12.922;2023-07-20T09:43:52;4.00;;;3.60;;
78288;SDS011;67539;48.752;12.922;2023-07-20T09:46:23;4.33;;;4.03;;
78288;SDS011;67539;48.752;12.922;2023-07-20T09:48:54;5.13;;;4.67;;
78288;SDS011;67539;48.752;12.922;2023-07-20T09:51:25;5.03;;;4.63;;
78288;SDS011;67539;48.752;12.922;2023-07-20T09:53:54;5.53;;;4.87;;
78288;SDS011;67539;48.752;12.922;2023-07-20T09:56:24;3.77;;;3.33;;
78288;SDS011;67539;48.752;12.922;2023-07-20T09:58:54;4.27;;;3.77;;
78288;SDS011;67539;48.752;12.922;2023-07-20T10:01:24;3.93;;;3.63;;
78288;SDS011;67539;48.752;12.922;2023-07-20T10:03:54;5.10;;;4.70;;
78288;SDS011;67539;48.752;12.922;2023-07-20T10:06:28;4.80;;;4.40;;
78288;SDS011;67539;48.752;12.922;2023-07-20T10:09:00;4.37;;;3.70;;
78288;SDS011;67539;48.752;12.922;2023-07-20T10:11:30;4.20;;;3.80;;
78288;SDS011;67539;48.752;12.922;2023-07-20T10:14:03;4.10;;;3.80;;
78288;SDS011;67539;48.752;12.922;2023-07-20T10:16:35;4.60;;;4.30;;
78288;SDS011;67539;48.752;12.922;2023-07-20T10:19:05;4.13;;;3.73;;
78288;SDS011;67539;48.752;12.922;2023-07-20T10:21:40;4.57;;;4.13;;
78288;SDS011;67539;48.752;12.922;2023-07-20T10:24:21;6.00;;;3.80;;
78288;SDS011;67539;48.752;12.922;2023-07-20T10:26:50;5.30;;;4.40;;
78288;SDS011;67539;48.752;12.922;2023-07-20T10:29:19;4.13;;;3.73;;
78288;SDS011;67539;48.752;12.922;2023-07-20T10:31:49;8.20;;;4.50;;
78288;SDS011;67539;48.752;12.922;2023-07-20T10:34:21;4.40;;;4.10;;
78288;SDS011;67539;48.752;12.922;2023-07-20T10:36:50;5.93;;;4.97;;
78288;SDS011;67539;48.752;12.922;2023-07-20T10:39:24;7.77;;;5.50;;
78288;SDS011;67539;48.752;12.922;2023-07-20T10:42:01;6.77;;;4.90;;
78288;SDS011;67539;48.752;12.922;2023-07-20T10:44:30;5.63;;;5.10;;
78288;SDS011;67539;48.752;12.922;2023-07-20T10:47:00;5.60;;;5.10;;
78288;SDS011;67539;48.752;12.922;2023-07-20T10:49:32;4.97;;;4.17;;
78288;SDS011;67539;48.752;12.922;2023-07-20T10:52:04;4.80;;;4.50;;
78288;SDS011;67539;48.752;12.922;2023-07-20T10:54:34;4.50;;;4.10;;
78288;SDS011;67539;48.752;12.922;2023-07-20T10:57:21;5.13;;;4.73;;
78288;SDS011;67539;48.752;12.922;2023-07-20T11:00:09;5.63;;;5.23;;
78288;SDS011;67539;48.752;12.922;2023-07-20T11:02:44;6.20;;;5.77;;
78288;SDS011;67539;48.752;12.922;2023-07-20T11:05:31;6.10;;;5.60;;
78288;SDS011;67539;48.752;12.922;2023-07-20T11:08:03;6.00;;;5.50;;
78288;SDS011;67539;48.752;12.922;2023-07-20T11:10:32;6.43;;;5.80;;
78288;SDS011;67539;48.752;12.922;2023-07-20T11:13:16;6.60;;;6.00;;
78288;SDS011;67539;48.752;12.922;2023-07-20T11:15:45;6.20;;;5.70;;
78288;SDS011;67539;48.752;12.922;2023-07-20T11:18:15;7.17;;;5.77;;
78288;SDS011;67539;48.752;12.922;2023-07-20T11:20:49;7.33;;;6.80;;
78288;SDS011;67539;48.752;12.922;2023-07-20T11:23:18;6.10;;;5.60;;
78288;SDS011;67539;48.752;12.922;2023-07-20T11:25:48;10.03;;;5.73;;
78288;SDS011;67539;48.752;12.922;2023-07-20T11:28:16;10.43;;;7.53;;
78288;SDS011;67539;48.752;12.922;2023-07-20T11:30:44;9.93;;;8.13;;
78288;SDS011;67539;48.752;12.922;2023-07-20T11:33:18;9.67;;;8.60;;
78288;SDS011;67539;48.752;12.922;2023-07-20T11:35:48;10.67;;;9.73;;
78288;SDS011;67539;48.752;12.922;2023-07-20T11:38:18;7.13;;;6.40;;
78288;SDS011;67539;48.752;12.922;2023-07-20T11:40:46;9.37;;;8.57;;
78288;SDS011;67539;48.752;12.922;2023-07-20T11:43:14;9.73;;;8.73;;
78288;SDS011;67539;48.752;12.922;2023-07-20T11:45:46;9.00;;;7.90;;
78288;SDS011;67539;48.752;12.922;2023-07-20T11:48:14;7.50;;;6.80;;
78288;SDS011;67539;48.752;12.922;2023-07-20T11:50:44;5.47;;;4.97;;
78288;SDS011;67539;48.752;12.922;2023-07-20T11:53:13;4.63;;;4.13;;
78288;SDS011;67539;48.752;12.922;2023-07-20T11:55:42;6.20;;;5.70;;
78288;SDS011;67539;48.752;12.922;2023-07-20T11:58:10;6.83;;;6.13;;
78288;SDS011;67539;48.752;12.922;2023-07-20T12:00:38;6.77;;;6.17;;
78288;SDS011;67539;48.752;12.922;2023-07-20T12:03:07;13.33;;;11.00;;
78288;SDS011;67539;48.752;12.922;2023-07-20T12:05:37;12.50;;;11.13;;
78288;SDS011;67539;48.752;12.922;2023-07-20T12:08:27;10.33;;;9.00;;
78288;SDS011;67539;48.752;12.922;2023-07-20T12:10:55;12.97;;;11.80;;
78288;SDS011;67539;48.752;12.922;2023-07-20T12:13:23;13.10;;;11.67;;
78288;SDS011;67539;48.752;12.922;2023-07-20T12:16:06;15.57;;;11.63;;
78288;SDS011;67539;48.752;12.922;2023-07-20T12:18:36;10.50;;;9.50;;
78288;SDS011;67539;48.752;12.922;2023-07-20T12:21:05;11.77;;;10.60;;
78288;SDS011;67539;48.752;12.922;2023-07-20T12:23:39;13.87;;;12.70;;
78288;SDS011;67539;48.752;12.922;2023-07-20T12:26:08;13.00;;;9.33;;
78288;SDS011;67539;48.752;12.922;2023-07-20T12:28:40;7.37;;;6.77;;
78288;SDS011;67539;48.752;12.922;2023-07-20T12:31:09;9.77;;;8.90;;
78288;SDS011;67539;48.752;12.922;2023-07-20T12:33:40;8.07;;;7.40;;
78288;SDS011;67539;48.752;12.922;2023-07-20T12:36:08;6.63;;;6.03;;
78288;SDS011;67539;48.752;12.922;2023-07-20T12:38:39;6.53;;;5.93;;
78288;SDS011;67539;48.752;12.922;2023-07-20T12:41:09;9.87;;;7.13;;
78288;SDS011;67539;48.752;12.922;2023-07-20T12:43:39;6.17;;;5.80;;
78288;SDS011;67539;48.752;12.922;2023-07-20T12:46:08;8.80;;;7.90;;
78288;SDS011;67539;48.752;12.922;2023-07-20T12:48:38;12.73;;;12.03;;
78288;SDS011;67539;48.752;12.922;2023-07-20T12:51:07;10.70;;;10.10;;
78288;SDS011;67539;48.752;12.922;2023-07-20T12:53:36;19.60;;;18.33;;
78288;SDS011;67539;48.752;12.922;2023-07-20T12:56:05;23.33;;;22.07;;
78288;SDS011;67539;48.752;12.922;2023-07-20T12:58:36;11.77;;;11.03;;
78288;SDS011;67539;48.752;12.922;2023-07-20T13:01:05;13.13;;;12.33;;
78288;SDS011;67539;48.752;12.922;2023-07-20T13:03:33;24.03;;;22.60;;
78288;SDS011;67539;48.752;12.922;2023-07-20T13:06:21;23.27;;;22.13;;
78288;SDS011;67539;48.752;12.922;2023-07-20T13:08:52;33.27;;;31.60;;
78288;SDS011;67539;48.752;12.922;2023-07-20T13:11:24;25.47;;;24.17;;
78288;SDS011;67539;48.752;12.922;2023-07-20T13:13:53;9.67;;;9.03;;
78288;SDS011;67539;48.752;12.922;2023-07-20T13:16:21;13.57;;;12.83;;
78288;SDS011;67539;48.752;12.922;2023-07-20T13:18:49;25.17;;;23.80;;
78288;SDS011;67539;48.752;12.922;2023-07-20T13:21:17;16.53;;;15.40;;
78288;SDS011;67539;48.752;12.922;2023-07-20T13:23:50;16.90;;;15.80;;
78288;SDS011;67539;48.752;12.922;2023-07-20T13:26:18;27.57;;;26.17;;
78288;SDS011;67539;48.752;12.922;2023-07-20T13:28:47;22.07;;;21.03;;
78288;SDS011;67539;48.752;12.922;2023-07-20T13:31:15;74.83;;;71.03;;
78288;SDS011;67539;48.752;12.922;2023-07-20T13:33:44;57.47;;;54.87;;
78288;SDS011;67539;48.752;12.922;2023-07-20T13:36:23;79.53;;;76.00;;
78288;SDS011;67539;48.752;12.922;2023-07-20T13:38:51;108.47;;;103.77;;
78288;SDS011;67539;48.752;12.922;2023-07-20T13:41:22;124.17;;;118.67;;
78288;SDS011;67539;48.752;12.922;2023-07-20T13:43:52;102.70;;;98.10;;
78288;SDS011;67539;48.752;12.922;2023-07-20T13:46:23;113.63;;;108.23;;
78288;SDS011;67539;48.752;12.922;2023-07-20T13:48:54;127.90;;;121.70;;
78288;SDS011;67539;48.752;12.922;2023-07-20T13:51:24;176.77;;;168.27;;
78288;SDS011;67539;48.752;12.922;2023-07-20T13:53:53;188.03;;;179.40;;
78288;SDS011;67539;48.752;12.922;2023-07-20T13:56:21;161.90;;;154.50;;
78288;SDS011;67539;48.752;12.922;2023-07-20T13:58:49;190.13;;;180.93;;
78288;SDS011;67539;48.752;12.922;2023-07-20T14:01:20;240.47;;;228.97;;
78288;SDS011;67539;48.752;12.922;2023-07-20T14:03:52;239.30;;;227.90;;
78288;SDS011;67539;48.752;12.922;2023-07-20T14:06:21;237.90;;;226.77;;
78288;SDS011;67539;48.752;12.922;2023-07-20T14:08:52;231.60;;;220.57;;
78288;SDS011;67539;48.752;12.922;2023-07-20T14:11:21;272.43;;;259.17;;
78288;SDS011;67539;48.752;12.922;2023-07-20T14:13:53;275.07;;;261.37;;
78288;SDS011;67539;48.752;12.922;2023-07-20T14:16:23;328.07;;;311.57;;
78288;SDS011;67539;48.752;12.922;2023-07-20T14:18:52;272.30;;;258.50;;
78288;SDS011;67539;48.752;12.922;2023-07-20T14:21:22;161.80;;;154.33;;
78288;SDS011;67539;48.752;12.922;2023-07-20T14:23:51;286.00;;;271.50;;
78288;SDS011;67539;48.752;12.922;2023-07-20T14:26:20;123.93;;;118.27;;
78288;SDS011;67539;48.752;12.922;2023-07-20T14:28:49;90.13;;;86.07;;
78288;SDS011;67539;48.752;12.922;2023-07-20T14:31:18;139.40;;;133.00;;
78288;SDS011;67539;48.752;12.922;2023-07-20T14:33:47;235.93;;;224.47;;
78288;SDS011;67539;48.752;12.922;2023-07-20T14:36:15;148.60;;;141.70;;
78288;SDS011;67539;48.752;12.922;2023-07-20T14:38:44;176.27;;;167.70;;
78288;SDS011;67539;48.752;12.922;2023-07-20T14:41:12;165.83;;;158.13;;
78288;SDS011;67539;48.752;12.922;2023-07-20T14:43:40;194.27;;;185.03;;
78288;SDS011;67539;48.752;12.922;2023-07-20T14:46:08;231.77;;;220.43;;
78288;SDS011;67539;48.752;12.922;2023-07-20T14:48:38;432.17;;;407.53;;
78288;SDS011;67539;48.752;12.922;2023-07-20T14:51:06;219.00;;;208.43;;
78288;SDS011;67539;48.752;12.922;2023-07-20T14:53:34;226.70;;;214.97;;
78288;SDS011;67539;48.752;12.922;2023-07-20T14:56:02;351.10;;;332.47;;
78288;SDS011;67539;48.752;12.922;2023-07-20T14:58:31;152.67;;;145.37;;
78288;SDS011;67539;48.752;12.922;2023-07-20T15:01:02;89.00;;;84.80;;
78288;SDS011;67539;48.752;12.922;2023-07-20T15:03:31;70.03;;;66.73;;
78288;SDS011;67539;48.752;12.922;2023-07-20T15:06:00;55.50;;;52.87;;
78288;SDS011;67539;48.752;12.922;2023-07-20T15:08:28;38.80;;;36.87;;
78288;SDS011;67539;48.752;12.922;2023-07-20T15:10:57;31.23;;;29.43;;
78288;SDS011;67539;48.752;12.922;2023-07-20T15:13:25;56.17;;;53.50;;
78288;SDS011;67539;48.752;12.922;2023-07-20T15:15:53;98.07;;;93.40;;
78288;SDS011;67539;48.752;12.922;2023-07-20T15:18:21;137.37;;;130.97;;
78288;SDS011;67539;48.752;12.922;2023-07-20T15:21:11;159.97;;;152.37;;
78288;SDS011;67539;48.752;12.922;2023-07-20T15:23:39;189.57;;;180.23;;
78288;SDS011;67539;48.752;12.922;2023-07-20T15:26:07;190.47;;;181.07;;
78288;SDS011;67539;48.752;12.922;2023-07-20T15:28:35;179.07;;;170.37;;
78288;SDS011;67539;48.752;12.922;2023-07-20T15:31:03;186.57;;;177.27;;
78288;SDS011;67539;48.752;12.922;2023-07-20T15:33:32;287.67;;;272.30;;
78288;SDS011;67539;48.752;12.922;2023-07-20T15:36:01;299.77;;;283.67;;
78288;SDS011;67539;48.752;12.922;2023-07-20T15:38:31;250.43;;;237.40;;
78288;SDS011;67539;48.752;12.922;2023-07-20T15:40:59;182.17;;;172.67;;
78288;SDS011;67539;48.752;12.922;2023-07-20T15:43:27;251.03;;;237.80;;
78288;SDS011;67539;48.752;12.922;2023-07-20T15:46:00;274.30;;;259.53;;
78288;SDS011;67539;48.752;12.922;2023-07-20T15:48:34;292.93;;;277.10;;
78288;SDS011;67539;48.752;12.922;2023-07-20T15:51:02;291.83;;;276.03;;
78288;SDS011;67539;48.752;12.922;2023-07-20T15:53:31;232.57;;;220.53;;
78288;SDS011;67539;48.752;12.922;2023-07-20T15:55:59;201.77;;;191.37;;
78288;SDS011;67539;48.752;12.922;2023-07-20T15:58:28;215.10;;;204.37;;
78288;SDS011;67539;48.752;12.922;2023-07-20T16:00:56;217.67;;;206.57;;
78288;SDS011;67539;48.752;12.922;2023-07-20T16:03:24;202.90;;;192.80;;
78288;SDS011;67539;48.752;12.922;2023-07-20T16:06:03;218.97;;;207.70;;
78288;SDS011;67539;48.752;12.922;2023-07-20T16:08:32;199.70;;;189.63;;
78288;SDS011;67539;48.752;12.922;2023-07-20T16:11:00;99.80;;;95.27;;
78288;SDS011;67539;48.752;12.922;2023-07-20T16:13:29;120.50;;;114.90;;
78288;SDS011;67539;48.752;12.922;2023-07-20T16:15:57;110.10;;;105.00;;
78288;SDS011;67539;48.752;12.922;2023-07-20T16:18:25;85.50;;;81.50;;
78288;SDS011;67539;48.752;12.922;2023-07-20T16:20:54;130.57;;;124.17;;
78288;SDS011;67539;48.752;12.922;2023-07-20T16:23:22;122.27;;;116.57;;
78288;SDS011;67539;48.752;12.922;2023-07-20T16:25:52;129.97;;;123.73;;
78288;SDS011;67539;48.752;12.922;2023-07-20T16:28:20;129.70;;;123.50;;
78288;SDS011;67539;48.752;12.922;2023-07-20T16:30:48;130.27;;;124.27;;
78288;SDS011;67539;48.752;12.922;2023-07-20T16:33:16;147.73;;;140.37;;
78288;SDS011;67539;48.752;12.922;2023-07-20T16:35:45;147.17;;;140.00;;
78288;SDS011;67539;48.752;12.922;2023-07-20T16:38:14;160.27;;;152.63;;
78288;SDS011;67539;48.752;12.922;2023-07-20T16:40:44;138.30;;;131.50;;
78288;SDS011;67539;48.752;12.922;2023-07-20T16:43:17;127.93;;;121.83;;
78288;SDS011;67539;48.752;12.922;2023-07-20T16:46:05;141.67;;;134.80;;
78288;SDS011;67539;48.752;12.922;2023-07-20T16:48:39;170.00;;;161.80;;
78288;SDS011;67539;48.752;12.922;2023-07-20T16:51:10;166.90;;;158.73;;
78288;SDS011;67539;48.752;12.922;2023-07-20T16:53:38;174.77;;;166.17;;
78288;SDS011;67539;48.752;12.922;2023-07-20T16:56:06;155.13;;;147.80;;